Quick Links (Output Below):   Max & Min Temps   /   Climate Reports   /   Zone Forecasts
River Forecasts   /   Forestry Forecasts   /   Aviation Forecasts   /   Radars   /   Features

Terminal Aerodrome Forecast (Fort Smith)

Pick a Site:
Arkadelphia | El Dorado | Fayetteville | Fort Smith | Harrison | Highfill | Hot Springs | Jonesboro
Little Rock | Monticello | Mountain Home | Pine Bluff | Texarkana
 Forecast 

KFSM 301725Z 3018/3118 18006KT P6SM BKN030 BKN080
      TEMPO 3018/3021 4SM TSRA OVC020CB
     FM302100 14007KT P6SM SCT020 BKN080
     FM310000 13006KT P6SM SCT080 SCT250
     FM310200 15003KT P6SM SCT250
     FM310700 08002KT 5SM BR SCT250
     FM311600 17006KT P6SM FEW250=


 Latest METARs (Observations) 
How to Decode METARs
20Z KFSM 301953Z 11004KT 10SM -RA FEW060 BKN090 OVC100 28/22 A2993 RMK
         AO2 RAB1855E20B51 SLP129 P0001 T02780222
         
19Z KFSM 301853Z 04007KT 10SM SCT035 BKN045 29/21 A2995 RMK AO2 SLP136
         T02940211
         
18Z KFSM 301753Z 06005KT 10SM SCT029 BKN055 31/22 A2997 RMK AO2 SLP141
         T03110217 10317 20228 58005
         
17Z KFSM 301653Z 00000KT 10SM BKN029 29/22 A2998 RMK AO2 SLP146
         T02940217
         
16Z KFSM 301553Z VRB03KT 10SM CLR 28/22 A2998 RMK AO2 SLP147
         T02780217
         
15Z KFSM 301453Z 12006KT 10SM BKN070 BKN095 25/22 A2998 RMK AO2 SLP148
         T02500222 53004
         
14Z KFSM 301353Z 10003KT 10SM BKN060 24/22 A2998 RMK AO2 SLP147
         T02390222
         
13Z KFSM 301253Z 07005KT 5SM BR FEW065 23/22 A2997 RMK AO2 SLP144
         T02330222
         
12Z KFSM 301153Z 06003KT 5SM BR BKN004 BKN045 OVC055 23/22 A2997 RMK
         AO2 SLP144 60008 70018 T02280217 10233 20228 53004
         
11Z KFSM 301053Z 08004KT 6SM BR OVC004 23/22 A2995 RMK AO2 SLP137
         T02280217
         
***** Today's Observations (Above) *****


Back to Main Page
http://www.srh.noaa.gov/lzk/qfcst.php

USA.gov is the U.S. government's official web portal to all federal, state and local government web resources and services.